sensor_id;sensor_type;location;lat;lon;timestamp;P1;durP1;ratioP1;P2;durP2;ratioP2
73699;SDS011;62005;50.082;8.988;2023-10-09T00:00:12;13.55;;;4.38;;
73699;SDS011;62005;50.082;8.988;2023-10-09T00:03:05;10.13;;;4.15;;
73699;SDS011;62005;50.082;8.988;2023-10-09T00:05:38;13.82;;;4.40;;
73699;SDS011;62005;50.082;8.988;2023-10-09T00:08:09;10.75;;;4.43;;
73699;SDS011;62005;50.082;8.988;2023-10-09T00:10:36;11.15;;;4.63;;
73699;SDS011;62005;50.082;8.988;2023-10-09T00:13:12;13.30;;;4.45;;
73699;SDS011;62005;50.082;8.988;2023-10-09T00:16:06;13.05;;;4.65;;
73699;SDS011;62005;50.082;8.988;2023-10-09T00:18:40;11.35;;;5.40;;
73699;SDS011;62005;50.082;8.988;2023-10-09T00:21:18;13.65;;;4.68;;
73699;SDS011;62005;50.082;8.988;2023-10-09T00:23:54;12.15;;;4.38;;
73699;SDS011;62005;50.082;8.988;2023-10-09T00:26:26;12.30;;;4.18;;
73699;SDS011;62005;50.082;8.988;2023-10-09T00:28:56;10.50;;;4.22;;
73699;SDS011;62005;50.082;8.988;2023-10-09T00:31:21;16.73;;;4.70;;
73699;SDS011;62005;50.082;8.988;2023-10-09T00:33:58;12.10;;;4.22;;
73699;SDS011;62005;50.082;8.988;2023-10-09T00:36:43;13.57;;;4.32;;
73699;SDS011;62005;50.082;8.988;2023-10-09T00:39:17;12.68;;;4.75;;
73699;SDS011;62005;50.082;8.988;2023-10-09T00:42:06;12.40;;;4.20;;
73699;SDS011;62005;50.082;8.988;2023-10-09T00:44:37;12.18;;;4.90;;
73699;SDS011;62005;50.082;8.988;2023-10-09T00:47:16;12.30;;;4.47;;
73699;SDS011;62005;50.082;8.988;2023-10-09T00:50:05;9.57;;;3.80;;
73699;SDS011;62005;50.082;8.988;2023-10-09T00:52:45;12.07;;;4.50;;
73699;SDS011;62005;50.082;8.988;2023-10-09T00:55:28;14.27;;;4.53;;
73699;SDS011;62005;50.082;8.988;2023-10-09T00:58:23;17.08;;;5.88;;
73699;SDS011;62005;50.082;8.988;2023-10-09T01:00:54;16.92;;;4.43;;
73699;SDS011;62005;50.082;8.988;2023-10-09T01:03:20;17.67;;;5.78;;
73699;SDS011;62005;50.082;8.988;2023-10-09T01:05:48;15.65;;;6.22;;
73699;SDS011;62005;50.082;8.988;2023-10-09T01:08:39;13.68;;;5.57;;
73699;SDS011;62005;50.082;8.988;2023-10-09T01:11:05;14.18;;;5.57;;
73699;SDS011;62005;50.082;8.988;2023-10-09T01:13:56;15.80;;;4.97;;
73699;SDS011;62005;50.082;8.988;2023-10-09T01:16:34;14.10;;;5.20;;
73699;SDS011;62005;50.082;8.988;2023-10-09T01:18:59;15.07;;;6.43;;
73699;SDS011;62005;50.082;8.988;2023-10-09T01:21:31;13.30;;;5.38;;
73699;SDS011;62005;50.082;8.988;2023-10-09T01:23:56;15.15;;;5.05;;
73699;SDS011;62005;50.082;8.988;2023-10-09T01:29:10;13.63;;;5.13;;
73699;SDS011;62005;50.082;8.988;2023-10-09T01:31:49;13.05;;;4.57;;
73699;SDS011;62005;50.082;8.988;2023-10-09T01:34:25;10.90;;;3.80;;
73699;SDS011;62005;50.082;8.988;2023-10-09T01:37:17;15.95;;;4.55;;
73699;SDS011;62005;50.082;8.988;2023-10-09T01:39:52;11.02;;;3.00;;
73699;SDS011;62005;50.082;8.988;2023-10-09T01:42:18;10.60;;;3.72;;
73699;SDS011;62005;50.082;8.988;2023-10-09T01:45:10;10.13;;;3.97;;
73699;SDS011;62005;50.082;8.988;2023-10-09T01:47:35;10.13;;;4.05;;
73699;SDS011;62005;50.082;8.988;2023-10-09T01:52:45;6.43;;;2.92;;
73699;SDS011;62005;50.082;8.988;2023-10-09T01:55:19;8.43;;;2.95;;
73699;SDS011;62005;50.082;8.988;2023-10-09T01:58:11;8.75;;;3.15;;
73699;SDS011;62005;50.082;8.988;2023-10-09T02:01:03;10.18;;;3.47;;
73699;SDS011;62005;50.082;8.988;2023-10-09T02:03:31;7.68;;;3.95;;
73699;SDS011;62005;50.082;8.988;2023-10-09T02:06:02;7.78;;;2.83;;
73699;SDS011;62005;50.082;8.988;2023-10-09T02:08:50;7.20;;;3.38;;
73699;SDS011;62005;50.082;8.988;2023-10-09T02:11:21;8.60;;;2.75;;
73699;SDS011;62005;50.082;8.988;2023-10-09T02:14:01;9.90;;;2.95;;
73699;SDS011;62005;50.082;8.988;2023-10-09T02:16:30;7.07;;;3.40;;
73699;SDS011;62005;50.082;8.988;2023-10-09T02:19:06;7.18;;;2.70;;
73699;SDS011;62005;50.082;8.988;2023-10-09T02:21:33;7.53;;;2.65;;
73699;SDS011;62005;50.082;8.988;2023-10-09T02:24:10;4.97;;;2.85;;
73699;SDS011;62005;50.082;8.988;2023-10-09T02:26:51;9.15;;;3.22;;
73699;SDS011;62005;50.082;8.988;2023-10-09T02:29:17;7.10;;;2.75;;
73699;SDS011;62005;50.082;8.988;2023-10-09T02:31:42;5.97;;;2.53;;
73699;SDS011;62005;50.082;8.988;2023-10-09T02:34:18;6.68;;;2.50;;
73699;SDS011;62005;50.082;8.988;2023-10-09T02:36:48;7.15;;;2.25;;
73699;SDS011;62005;50.082;8.988;2023-10-09T02:39:15;5.22;;;2.42;;
73699;SDS011;62005;50.082;8.988;2023-10-09T02:41:59;5.75;;;2.78;;
73699;SDS011;62005;50.082;8.988;2023-10-09T02:44:42;7.32;;;2.83;;
73699;SDS011;62005;50.082;8.988;2023-10-09T02:47:20;6.78;;;2.08;;
73699;SDS011;62005;50.082;8.988;2023-10-09T02:49:50;7.28;;;3.00;;
73699;SDS011;62005;50.082;8.988;2023-10-09T02:52:16;4.97;;;2.97;;
73699;SDS011;62005;50.082;8.988;2023-10-09T02:54:52;6.47;;;2.95;;
73699;SDS011;62005;50.082;8.988;2023-10-09T02:57:25;8.80;;;2.97;;
73699;SDS011;62005;50.082;8.988;2023-10-09T02:59:53;8.32;;;3.03;;
73699;SDS011;62005;50.082;8.988;2023-10-09T03:02:36;7.82;;;2.70;;
73699;SDS011;62005;50.082;8.988;2023-10-09T03:10:14;7.18;;;2.47;;
73699;SDS011;62005;50.082;8.988;2023-10-09T03:12:39;7.78;;;3.00;;
73699;SDS011;62005;50.082;8.988;2023-10-09T03:15:08;6.85;;;3.05;;
73699;SDS011;62005;50.082;8.988;2023-10-09T03:17:34;8.48;;;2.97;;
73699;SDS011;62005;50.082;8.988;2023-10-09T03:20:06;7.07;;;2.80;;
73699;SDS011;62005;50.082;8.988;2023-10-09T03:22:40;6.68;;;3.35;;
73699;SDS011;62005;50.082;8.988;2023-10-09T03:25:26;7.47;;;2.90;;
73699;SDS011;62005;50.082;8.988;2023-10-09T03:27:53;7.90;;;3.28;;
73699;SDS011;62005;50.082;8.988;2023-10-09T03:30:21;7.00;;;3.38;;
73699;SDS011;62005;50.082;8.988;2023-10-09T03:32:54;7.35;;;3.42;;
73699;SDS011;62005;50.082;8.988;2023-10-09T03:35:21;8.23;;;3.35;;
73699;SDS011;62005;50.082;8.988;2023-10-09T03:38:06;8.20;;;3.42;;
73699;SDS011;62005;50.082;8.988;2023-10-09T03:40:40;10.80;;;3.10;;
73699;SDS011;62005;50.082;8.988;2023-10-09T03:43:07;9.73;;;4.03;;
73699;SDS011;62005;50.082;8.988;2023-10-09T03:45:35;6.88;;;3.08;;
73699;SDS011;62005;50.082;8.988;2023-10-09T03:48:03;10.15;;;3.60;;
73699;SDS011;62005;50.082;8.988;2023-10-09T03:50:37;10.52;;;3.42;;
73699;SDS011;62005;50.082;8.988;2023-10-09T03:53:11;11.13;;;3.13;;
73699;SDS011;62005;50.082;8.988;2023-10-09T03:55:40;5.85;;;3.00;;
73699;SDS011;62005;50.082;8.988;2023-10-09T04:00:32;6.28;;;2.58;;
73699;SDS011;62005;50.082;8.988;2023-10-09T04:03:14;9.15;;;3.03;;
73699;SDS011;62005;50.082;8.988;2023-10-09T04:05:42;6.03;;;2.83;;
73699;SDS011;62005;50.082;8.988;2023-10-09T04:08:13;6.22;;;2.78;;
73699;SDS011;62005;50.082;8.988;2023-10-09T04:10:44;7.10;;;2.70;;
73699;SDS011;62005;50.082;8.988;2023-10-09T04:13:18;6.43;;;2.97;;
73699;SDS011;62005;50.082;8.988;2023-10-09T04:16:00;7.32;;;3.53;;
73699;SDS011;62005;50.082;8.988;2023-10-09T04:18:34;6.32;;;2.47;;
73699;SDS011;62005;50.082;8.988;2023-10-09T04:21:03;9.25;;;2.45;;
73699;SDS011;62005;50.082;8.988;2023-10-09T04:24:05;7.80;;;1.75;;
73699;SDS011;62005;50.082;8.988;2023-10-09T04:26:48;6.35;;;3.33;;
73699;SDS011;62005;50.082;8.988;2023-10-09T04:29:18;7.38;;;4.13;;
73699;SDS011;62005;50.082;8.988;2023-10-09T04:32:03;6.53;;;2.78;;
73699;SDS011;62005;50.082;8.988;2023-10-09T04:34:32;8.18;;;3.00;;
73699;SDS011;62005;50.082;8.988;2023-10-09T04:37:13;7.55;;;3.15;;
73699;SDS011;62005;50.082;8.988;2023-10-09T04:39:39;10.77;;;3.45;;
73699;SDS011;62005;50.082;8.988;2023-10-09T04:42:11;6.13;;;3.25;;
73699;SDS011;62005;50.082;8.988;2023-10-09T04:44:52;6.78;;;4.18;;
73699;SDS011;62005;50.082;8.988;2023-10-09T04:47:44;6.93;;;2.47;;
73699;SDS011;62005;50.082;8.988;2023-10-09T04:50:23;5.70;;;2.35;;
73699;SDS011;62005;50.082;8.988;2023-10-09T04:52:54;6.55;;;3.08;;
73699;SDS011;62005;50.082;8.988;2023-10-09T04:55:22;8.75;;;3.00;;
73699;SDS011;62005;50.082;8.988;2023-10-09T04:57:51;4.93;;;2.55;;
73699;SDS011;62005;50.082;8.988;2023-10-09T05:00:26;5.63;;;2.58;;
73699;SDS011;62005;50.082;8.988;2023-10-09T05:02:52;8.45;;;2.92;;
73699;SDS011;62005;50.082;8.988;2023-10-09T05:05:26;4.57;;;2.28;;
73699;SDS011;62005;50.082;8.988;2023-10-09T05:10:49;5.75;;;2.95;;
73699;SDS011;62005;50.082;8.988;2023-10-09T05:13:40;6.28;;;3.10;;
73699;SDS011;62005;50.082;8.988;2023-10-09T05:18:48;7.50;;;3.20;;
73699;SDS011;62005;50.082;8.988;2023-10-09T05:21:33;9.13;;;3.25;;
73699;SDS011;62005;50.082;8.988;2023-10-09T05:24:09;8.05;;;2.80;;
73699;SDS011;62005;50.082;8.988;2023-10-09T05:26:47;6.07;;;3.03;;
73699;SDS011;62005;50.082;8.988;2023-10-09T05:29:26;8.32;;;3.63;;
73699;SDS011;62005;50.082;8.988;2023-10-09T05:31:57;5.47;;;2.85;;
73699;SDS011;62005;50.082;8.988;2023-10-09T05:34:28;5.45;;;2.78;;
73699;SDS011;62005;50.082;8.988;2023-10-09T05:37:13;6.63;;;3.55;;
73699;SDS011;62005;50.082;8.988;2023-10-09T05:39:51;6.60;;;2.85;;
73699;SDS011;62005;50.082;8.988;2023-10-09T05:44:54;5.88;;;3.42;;
73699;SDS011;62005;50.082;8.988;2023-10-09T05:47:38;7.30;;;3.90;;
73699;SDS011;62005;50.082;8.988;2023-10-09T05:50:12;5.78;;;3.35;;
73699;SDS011;62005;50.082;8.988;2023-10-09T05:52:38;6.45;;;3.47;;
73699;SDS011;62005;50.082;8.988;2023-10-09T05:55:04;7.28;;;3.22;;
73699;SDS011;62005;50.082;8.988;2023-10-09T05:57:53;7.00;;;3.70;;
73699;SDS011;62005;50.082;8.988;2023-10-09T06:00:39;7.18;;;3.25;;
73699;SDS011;62005;50.082;8.988;2023-10-09T06:03:23;12.88;;;2.63;;
73699;SDS011;62005;50.082;8.988;2023-10-09T06:05:49;5.88;;;3.17;;
73699;SDS011;62005;50.082;8.988;2023-10-09T06:08:19;8.38;;;2.85;;
73699;SDS011;62005;50.082;8.988;2023-10-09T06:11:03;7.88;;;3.78;;
73699;SDS011;62005;50.082;8.988;2023-10-09T06:13:48;9.60;;;3.42;;
73699;SDS011;62005;50.082;8.988;2023-10-09T06:16:27;6.15;;;3.53;;
73699;SDS011;62005;50.082;8.988;2023-10-09T06:19:14;7.95;;;3.00;;
73699;SDS011;62005;50.082;8.988;2023-10-09T06:21:48;6.18;;;3.38;;
73699;SDS011;62005;50.082;8.988;2023-10-09T06:24:20;9.93;;;4.05;;
73699;SDS011;62005;50.082;8.988;2023-10-09T06:26:51;6.97;;;3.35;;
73699;SDS011;62005;50.082;8.988;2023-10-09T06:29:40;9.60;;;3.47;;
73699;SDS011;62005;50.082;8.988;2023-10-09T06:32:09;9.40;;;3.15;;
73699;SDS011;62005;50.082;8.988;2023-10-09T06:34:58;6.60;;;2.90;;
73699;SDS011;62005;50.082;8.988;2023-10-09T06:37:43;9.35;;;3.30;;
73699;SDS011;62005;50.082;8.988;2023-10-09T06:40:28;11.35;;;3.80;;
73699;SDS011;62005;50.082;8.988;2023-10-09T06:43:12;6.88;;;3.40;;
73699;SDS011;62005;50.082;8.988;2023-10-09T06:45:57;7.22;;;3.47;;
73699;SDS011;62005;50.082;8.988;2023-10-09T06:48:23;7.75;;;4.10;;
73699;SDS011;62005;50.082;8.988;2023-10-09T06:51:02;11.25;;;3.75;;
73699;SDS011;62005;50.082;8.988;2023-10-09T06:53:47;9.60;;;4.05;;
73699;SDS011;62005;50.082;8.988;2023-10-09T06:56:21;10.65;;;3.78;;
73699;SDS011;62005;50.082;8.988;2023-10-09T06:59:08;7.50;;;3.55;;
73699;SDS011;62005;50.082;8.988;2023-10-09T07:01:49;15.20;;;6.60;;
73699;SDS011;62005;50.082;8.988;2023-10-09T07:04:36;12.55;;;5.40;;
73699;SDS011;62005;50.082;8.988;2023-10-09T07:07:02;10.02;;;4.72;;
73699;SDS011;62005;50.082;8.988;2023-10-09T07:09:35;16.38;;;5.05;;
73699;SDS011;62005;50.082;8.988;2023-10-09T07:12:29;13.25;;;5.22;;
73699;SDS011;62005;50.082;8.988;2023-10-09T07:14:58;13.57;;;4.43;;
73699;SDS011;62005;50.082;8.988;2023-10-09T07:17:46;8.50;;;3.63;;
73699;SDS011;62005;50.082;8.988;2023-10-09T07:20:12;9.07;;;4.07;;
73699;SDS011;62005;50.082;8.988;2023-10-09T07:22:39;9.88;;;3.83;;
73699;SDS011;62005;50.082;8.988;2023-10-09T07:25:17;8.60;;;3.75;;
73699;SDS011;62005;50.082;8.988;2023-10-09T07:28:09;11.98;;;4.05;;
73699;SDS011;62005;50.082;8.988;2023-10-09T07:30:55;11.15;;;4.35;;
73699;SDS011;62005;50.082;8.988;2023-10-09T07:33:23;9.75;;;4.90;;
73699;SDS011;62005;50.082;8.988;2023-10-09T07:36:00;8.95;;;4.10;;
73699;SDS011;62005;50.082;8.988;2023-10-09T07:38:31;7.70;;;3.45;;
73699;SDS011;62005;50.082;8.988;2023-10-09T07:41:02;8.20;;;3.15;;
73699;SDS011;62005;50.082;8.988;2023-10-09T07:43:32;7.38;;;3.47;;
73699;SDS011;62005;50.082;8.988;2023-10-09T07:46:17;7.93;;;3.10;;
73699;SDS011;62005;50.082;8.988;2023-10-09T07:49:09;11.80;;;3.70;;
73699;SDS011;62005;50.082;8.988;2023-10-09T07:51:35;6.70;;;3.17;;
73699;SDS011;62005;50.082;8.988;2023-10-09T07:54:02;10.27;;;3.72;;
73699;SDS011;62005;50.082;8.988;2023-10-09T07:56:37;8.85;;;3.25;;
73699;SDS011;62005;50.082;8.988;2023-10-09T07:59:08;7.65;;;3.03;;
73699;SDS011;62005;50.082;8.988;2023-10-09T08:01:37;7.43;;;3.22;;
73699;SDS011;62005;50.082;8.988;2023-10-09T08:04:03;8.90;;;3.25;;
73699;SDS011;62005;50.082;8.988;2023-10-09T08:06:39;12.50;;;2.90;;
73699;SDS011;62005;50.082;8.988;2023-10-09T08:09:05;9.50;;;3.17;;
73699;SDS011;62005;50.082;8.988;2023-10-09T08:11:37;6.82;;;3.35;;
73699;SDS011;62005;50.082;8.988;2023-10-09T08:14:06;9.20;;;3.05;;
73699;SDS011;62005;50.082;8.988;2023-10-09T08:16:45;6.97;;;3.25;;
73699;SDS011;62005;50.082;8.988;2023-10-09T08:19:11;5.68;;;2.65;;
73699;SDS011;62005;50.082;8.988;2023-10-09T08:22:00;8.07;;;3.08;;
73699;SDS011;62005;50.082;8.988;2023-10-09T08:24:44;7.75;;;3.08;;
73699;SDS011;62005;50.082;8.988;2023-10-09T08:27:17;6.20;;;2.85;;
73699;SDS011;62005;50.082;8.988;2023-10-09T08:29:55;11.77;;;3.15;;
73699;SDS011;62005;50.082;8.988;2023-10-09T08:32:40;11.15;;;3.00;;
73699;SDS011;62005;50.082;8.988;2023-10-09T08:35:07;8.25;;;3.15;;
73699;SDS011;62005;50.082;8.988;2023-10-09T08:37:55;16.67;;;3.55;;
73699;SDS011;62005;50.082;8.988;2023-10-09T08:40:30;10.00;;;3.58;;
73699;SDS011;62005;50.082;8.988;2023-10-09T08:42:59;10.60;;;3.33;;
73699;SDS011;62005;50.082;8.988;2023-10-09T08:45:34;6.70;;;3.13;;
73699;SDS011;62005;50.082;8.988;2023-10-09T08:48:04;10.82;;;3.33;;
73699;SDS011;62005;50.082;8.988;2023-10-09T08:50:33;7.28;;;3.13;;
73699;SDS011;62005;50.082;8.988;2023-10-09T08:53:00;9.90;;;3.45;;
73699;SDS011;62005;50.082;8.988;2023-10-09T08:55:28;7.32;;;3.15;;
73699;SDS011;62005;50.082;8.988;2023-10-09T08:57:54;7.68;;;3.10;;
73699;SDS011;62005;50.082;8.988;2023-10-09T09:00:22;8.63;;;3.28;;
73699;SDS011;62005;50.082;8.988;2023-10-09T09:02:50;5.82;;;2.40;;
73699;SDS011;62005;50.082;8.988;2023-10-09T09:05:20;7.68;;;2.70;;
73699;SDS011;62005;50.082;8.988;2023-10-09T09:07:46;11.30;;;2.85;;
73699;SDS011;62005;50.082;8.988;2023-10-09T09:10:13;9.07;;;2.63;;
73699;SDS011;62005;50.082;8.988;2023-10-09T09:12:48;7.25;;;2.92;;
73699;SDS011;62005;50.082;8.988;2023-10-09T09:15:18;7.78;;;2.70;;
73699;SDS011;62005;50.082;8.988;2023-10-09T09:17:51;9.23;;;2.70;;
73699;SDS011;62005;50.082;8.988;2023-10-09T09:20:31;11.70;;;3.05;;
73699;SDS011;62005;50.082;8.988;2023-10-09T09:22:59;10.82;;;2.72;;
73699;SDS011;62005;50.082;8.988;2023-10-09T09:25:39;9.75;;;2.70;;
73699;SDS011;62005;50.082;8.988;2023-10-09T09:28:13;7.63;;;3.03;;
73699;SDS011;62005;50.082;8.988;2023-10-09T09:30:44;7.70;;;3.28;;
73699;SDS011;62005;50.082;8.988;2023-10-09T09:33:19;7.07;;;3.08;;
73699;SDS011;62005;50.082;8.988;2023-10-09T09:36:01;9.07;;;2.83;;
73699;SDS011;62005;50.082;8.988;2023-10-09T09:38:34;7.40;;;2.75;;
73699;SDS011;62005;50.082;8.988;2023-10-09T09:41:13;14.05;;;2.83;;
73699;SDS011;62005;50.082;8.988;2023-10-09T09:43:55;12.00;;;3.00;;
73699;SDS011;62005;50.082;8.988;2023-10-09T09:46:25;7.35;;;2.88;;
73699;SDS011;62005;50.082;8.988;2023-10-09T09:49:02;6.55;;;2.65;;
73699;SDS011;62005;50.082;8.988;2023-10-09T09:51:42;5.60;;;2.20;;
73699;SDS011;62005;50.082;8.988;2023-10-09T09:54:11;9.10;;;2.28;;
73699;SDS011;62005;50.082;8.988;2023-10-09T09:56:42;6.88;;;2.45;;
73699;SDS011;62005;50.082;8.988;2023-10-09T09:59:15;9.13;;;3.22;;
73699;SDS011;62005;50.082;8.988;2023-10-09T10:01:48;8.80;;;3.10;;
73699;SDS011;62005;50.082;8.988;2023-10-09T10:04:22;8.50;;;2.97;;
73699;SDS011;62005;50.082;8.988;2023-10-09T10:06:51;10.65;;;2.83;;
73699;SDS011;62005;50.082;8.988;2023-10-09T10:09:39;7.22;;;3.10;;
73699;SDS011;62005;50.082;8.988;2023-10-09T10:12:06;8.23;;;3.30;;
73699;SDS011;62005;50.082;8.988;2023-10-09T10:20:26;7.47;;;2.85;;
73699;SDS011;62005;50.082;8.988;2023-10-09T10:25:44;8.95;;;3.10;;
73699;SDS011;62005;50.082;8.988;2023-10-09T10:31:07;8.45;;;3.05;;
73699;SDS011;62005;50.082;8.988;2023-10-09T10:36:23;9.63;;;2.65;;
73699;SDS011;62005;50.082;8.988;2023-10-09T10:39:07;10.75;;;2.83;;
73699;SDS011;62005;50.082;8.988;2023-10-09T10:48:25;15.07;;;2.85;;
73699;SDS011;62005;50.082;8.988;2023-10-09T10:51:02;9.95;;;2.65;;
73699;SDS011;62005;50.082;8.988;2023-10-09T10:53:29;6.43;;;2.60;;
73699;SDS011;62005;50.082;8.988;2023-10-09T10:56:02;6.85;;;2.70;;
73699;SDS011;62005;50.082;8.988;2023-10-09T10:58:37;6.97;;;2.13;;
73699;SDS011;62005;50.082;8.988;2023-10-09T11:01:03;10.57;;;2.60;;
73699;SDS011;62005;50.082;8.988;2023-10-09T11:03:36;8.10;;;2.47;;
73699;SDS011;62005;50.082;8.988;2023-10-09T11:06:39;8.40;;;2.08;;
73699;SDS011;62005;50.082;8.988;2023-10-09T11:12:04;6.97;;;2.22;;
73699;SDS011;62005;50.082;8.988;2023-10-09T11:14:47;9.02;;;2.40;;
73699;SDS011;62005;50.082;8.988;2023-10-09T11:17:34;7.97;;;2.38;;
73699;SDS011;62005;50.082;8.988;2023-10-09T11:22:47;8.43;;;1.98;;
73699;SDS011;62005;50.082;8.988;2023-10-09T11:25:39;7.07;;;1.75;;
73699;SDS011;62005;50.082;8.988;2023-10-09T11:28:19;6.78;;;1.98;;
73699;SDS011;62005;50.082;8.988;2023-10-09T11:31:06;8.25;;;2.03;;
73699;SDS011;62005;50.082;8.988;2023-10-09T11:33:51;8.82;;;2.03;;
73699;SDS011;62005;50.082;8.988;2023-10-09T11:36:17;9.85;;;1.90;;
73699;SDS011;62005;50.082;8.988;2023-10-09T11:38:58;7.80;;;1.60;;
73699;SDS011;62005;50.082;8.988;2023-10-09T11:41:47;10.20;;;2.00;;
73699;SDS011;62005;50.082;8.988;2023-10-09T11:44:14;4.70;;;1.70;;
73699;SDS011;62005;50.082;8.988;2023-10-09T11:46:59;8.30;;;1.50;;
73699;SDS011;62005;50.082;8.988;2023-10-09T11:49:48;7.65;;;1.67;;
73699;SDS011;62005;50.082;8.988;2023-10-09T11:52:21;8.90;;;1.35;;
73699;SDS011;62005;50.082;8.988;2023-10-09T11:55:21;5.95;;;1.45;;
73699;SDS011;62005;50.082;8.988;2023-10-09T11:57:50;7.03;;;1.50;;
73699;SDS011;62005;50.082;8.988;2023-10-09T12:00:16;4.53;;;1.30;;
73699;SDS011;62005;50.082;8.988;2023-10-09T12:02:57;7.38;;;1.50;;
73699;SDS011;62005;50.082;8.988;2023-10-09T12:05:30;4.60;;;1.10;;
73699;SDS011;62005;50.082;8.988;2023-10-09T12:07:56;7.80;;;1.67;;
73699;SDS011;62005;50.082;8.988;2023-10-09T12:10:23;14.18;;;1.98;;
73699;SDS011;62005;50.082;8.988;2023-10-09T12:12:54;7.47;;;1.52;;
73699;SDS011;62005;50.082;8.988;2023-10-09T12:15:23;6.35;;;1.80;;
73699;SDS011;62005;50.082;8.988;2023-10-09T12:17:49;8.32;;;1.35;;
73699;SDS011;62005;50.082;8.988;2023-10-09T12:20:14;7.38;;;1.52;;
73699;SDS011;62005;50.082;8.988;2023-10-09T12:23:07;4.72;;;1.42;;
73699;SDS011;62005;50.082;8.988;2023-10-09T12:25:34;6.35;;;1.38;;
73699;SDS011;62005;50.082;8.988;2023-10-09T12:28:00;9.45;;;1.88;;
73699;SDS011;62005;50.082;8.988;2023-10-09T12:30:30;4.57;;;1.48;;
73699;SDS011;62005;50.082;8.988;2023-10-09T12:32:56;7.40;;;1.55;;
73699;SDS011;62005;50.082;8.988;2023-10-09T12:35:25;8.10;;;1.73;;
73699;SDS011;62005;50.082;8.988;2023-10-09T12:37:56;5.55;;;1.63;;
73699;SDS011;62005;50.082;8.988;2023-10-09T12:40:25;4.55;;;1.58;;
73699;SDS011;62005;50.082;8.988;2023-10-09T12:42:56;5.03;;;1.40;;
73699;SDS011;62005;50.082;8.988;2023-10-09T12:45:41;5.18;;;1.15;;
73699;SDS011;62005;50.082;8.988;2023-10-09T12:48:19;7.70;;;1.75;;
73699;SDS011;62005;50.082;8.988;2023-10-09T12:50:44;9.90;;;2.08;;
73699;SDS011;62005;50.082;8.988;2023-10-09T12:53:10;8.15;;;2.03;;
73699;SDS011;62005;50.082;8.988;2023-10-09T12:55:39;5.35;;;2.13;;
73699;SDS011;62005;50.082;8.988;2023-10-09T12:58:06;5.45;;;1.83;;
73699;SDS011;62005;50.082;8.988;2023-10-09T13:00:35;5.88;;;2.00;;
73699;SDS011;62005;50.082;8.988;2023-10-09T13:03:09;6.38;;;1.38;;
73699;SDS011;62005;50.082;8.988;2023-10-09T13:05:43;5.60;;;2.10;;
73699;SDS011;62005;50.082;8.988;2023-10-09T13:08:24;7.50;;;1.95;;
73699;SDS011;62005;50.082;8.988;2023-10-09T13:11:03;8.25;;;2.00;;
73699;SDS011;62005;50.082;8.988;2023-10-09T13:13:35;5.93;;;1.92;;
73699;SDS011;62005;50.082;8.988;2023-10-09T13:16:06;5.07;;;1.63;;
73699;SDS011;62005;50.082;8.988;2023-10-09T13:18:35;6.90;;;1.80;;
73699;SDS011;62005;50.082;8.988;2023-10-09T13:21:02;7.20;;;1.75;;
73699;SDS011;62005;50.082;8.988;2023-10-09T13:23:29;5.88;;;1.67;;
73699;SDS011;62005;50.082;8.988;2023-10-09T13:26:03;7.20;;;1.50;;
73699;SDS011;62005;50.082;8.988;2023-10-09T13:28:42;4.93;;;1.40;;
73699;SDS011;62005;50.082;8.988;2023-10-09T13:31:10;6.90;;;1.80;;
73699;SDS011;62005;50.082;8.988;2023-10-09T13:33:39;7.78;;;1.70;;
73699;SDS011;62005;50.082;8.988;2023-10-09T13:36:05;8.27;;;1.98;;
73699;SDS011;62005;50.082;8.988;2023-10-09T13:38:41;8.13;;;2.13;;
73699;SDS011;62005;50.082;8.988;2023-10-09T13:41:08;6.47;;;1.90;;
73699;SDS011;62005;50.082;8.988;2023-10-09T13:43:38;6.57;;;1.90;;
73699;SDS011;62005;50.082;8.988;2023-10-09T13:46:08;8.55;;;1.95;;
73699;SDS011;62005;50.082;8.988;2023-10-09T13:48:34;7.60;;;1.92;;
73699;SDS011;62005;50.082;8.988;2023-10-09T13:51:12;8.60;;;2.03;;
73699;SDS011;62005;50.082;8.988;2023-10-09T13:53:48;8.35;;;2.00;;
73699;SDS011;62005;50.082;8.988;2023-10-09T13:56:17;7.95;;;1.85;;
73699;SDS011;62005;50.082;8.988;2023-10-09T13:58:50;7.85;;;1.80;;
73699;SDS011;62005;50.082;8.988;2023-10-09T14:01:18;11.00;;;2.30;;
73699;SDS011;62005;50.082;8.988;2023-10-09T14:03:58;9.90;;;2.05;;
73699;SDS011;62005;50.082;8.988;2023-10-09T14:06:25;8.70;;;2.13;;
73699;SDS011;62005;50.082;8.988;2023-10-09T14:08:57;9.55;;;1.80;;
73699;SDS011;62005;50.082;8.988;2023-10-09T14:11:34;10.48;;;1.90;;
73699;SDS011;62005;50.082;8.988;2023-10-09T14:14:03;13.50;;;2.35;;
73699;SDS011;62005;50.082;8.988;2023-10-09T14:16:29;7.38;;;2.22;;
73699;SDS011;62005;50.082;8.988;2023-10-09T14:18:57;9.73;;;2.28;;
73699;SDS011;62005;50.082;8.988;2023-10-09T14:21:24;7.82;;;2.28;;
73699;SDS011;62005;50.082;8.988;2023-10-09T14:23:51;7.47;;;1.83;;
73699;SDS011;62005;50.082;8.988;2023-10-09T14:26:37;6.80;;;1.70;;
73699;SDS011;62005;50.082;8.988;2023-10-09T14:29:04;8.40;;;2.00;;
73699;SDS011;62005;50.082;8.988;2023-10-09T14:31:31;8.95;;;1.98;;
73699;SDS011;62005;50.082;8.988;2023-10-09T14:34:00;8.02;;;1.75;;
73699;SDS011;62005;50.082;8.988;2023-10-09T14:36:29;7.38;;;1.52;;
73699;SDS011;62005;50.082;8.988;2023-10-09T14:38:58;8.68;;;1.63;;
73699;SDS011;62005;50.082;8.988;2023-10-09T14:41:25;10.65;;;2.22;;
73699;SDS011;62005;50.082;8.988;2023-10-09T14:43:52;6.18;;;1.60;;
73699;SDS011;62005;50.082;8.988;2023-10-09T14:46:18;5.57;;;1.40;;
73699;SDS011;62005;50.082;8.988;2023-10-09T14:48:52;7.28;;;2.00;;
73699;SDS011;62005;50.082;8.988;2023-10-09T14:51:22;7.78;;;1.58;;
73699;SDS011;62005;50.082;8.988;2023-10-09T14:53:58;6.53;;;2.25;;
73699;SDS011;62005;50.082;8.988;2023-10-09T14:56:26;6.22;;;2.20;;
73699;SDS011;62005;50.082;8.988;2023-10-09T14:58:58;8.65;;;1.95;;
73699;SDS011;62005;50.082;8.988;2023-10-09T15:01:27;6.65;;;1.70;;
73699;SDS011;62005;50.082;8.988;2023-10-09T15:04:02;5.80;;;2.00;;
73699;SDS011;62005;50.082;8.988;2023-10-09T15:06:29;7.45;;;2.20;;
73699;SDS011;62005;50.082;8.988;2023-10-09T15:09:01;6.25;;;1.75;;
73699;SDS011;62005;50.082;8.988;2023-10-09T15:11:33;8.80;;;2.38;;
73699;SDS011;62005;50.082;8.988;2023-10-09T15:13:58;9.65;;;2.40;;
73699;SDS011;62005;50.082;8.988;2023-10-09T15:16:24;10.48;;;1.88;;
73699;SDS011;62005;50.082;8.988;2023-10-09T15:18:52;6.85;;;1.83;;
73699;SDS011;62005;50.082;8.988;2023-10-09T15:21:22;6.57;;;2.33;;
73699;SDS011;62005;50.082;8.988;2023-10-09T15:23:52;9.15;;;1.90;;
73699;SDS011;62005;50.082;8.988;2023-10-09T15:26:19;7.25;;;2.05;;
73699;SDS011;62005;50.082;8.988;2023-10-09T15:28:45;11.57;;;2.58;;
73699;SDS011;62005;50.082;8.988;2023-10-09T15:31:11;8.93;;;2.30;;
73699;SDS011;62005;50.082;8.988;2023-10-09T15:33:38;9.27;;;2.50;;
73699;SDS011;62005;50.082;8.988;2023-10-09T15:38:43;11.07;;;2.35;;
73699;SDS011;62005;50.082;8.988;2023-10-09T15:41:08;8.65;;;2.20;;
73699;SDS011;62005;50.082;8.988;2023-10-09T15:43:37;7.32;;;1.88;;
73699;SDS011;62005;50.082;8.988;2023-10-09T15:46:05;10.65;;;2.95;;
73699;SDS011;62005;50.082;8.988;2023-10-09T15:48:36;7.70;;;1.90;;
73699;SDS011;62005;50.082;8.988;2023-10-09T15:51:02;7.07;;;2.10;;
73699;SDS011;62005;50.082;8.988;2023-10-09T15:53:28;10.65;;;2.78;;
73699;SDS011;62005;50.082;8.988;2023-10-09T15:55:53;5.73;;;1.90;;
73699;SDS011;62005;50.082;8.988;2023-10-09T15:58:22;7.93;;;1.95;;
73699;SDS011;62005;50.082;8.988;2023-10-09T16:00:48;6.55;;;1.77;;
73699;SDS011;62005;50.082;8.988;2023-10-09T16:03:15;7.63;;;2.25;;
73699;SDS011;62005;50.082;8.988;2023-10-09T16:05:40;8.63;;;2.15;;
73699;SDS011;62005;50.082;8.988;2023-10-09T16:08:06;7.13;;;2.22;;
73699;SDS011;62005;50.082;8.988;2023-10-09T16:10:33;8.43;;;2.00;;
73699;SDS011;62005;50.082;8.988;2023-10-09T16:12:59;8.88;;;2.03;;
73699;SDS011;62005;50.082;8.988;2023-10-09T16:15:25;7.00;;;1.90;;